Galena, Nevada Weather observations

Data are for 10 minute period ending at time listed.
 Day   Time    Ave.   Ave.  Ave.  Vector   Max.   Total    Solar   
  of    of     Air    Rel.  Wind   Wind    Wind  Precip.   Rad.    
Year   Day     Temp.  Hum.  Speed  Dir.    Gust                    
2016   (PST)    F      %     mph   deg.    mph     in.     W/m2    
------------------------------------------------------------------- 
 124    9:00   60.0    42    4.0   132      8.0   15.61     646  
 124   10:00   63.0    37    4.0   104      9.0   15.61     798  
 124   11:00   65.0    29    7.0   173     15.0   15.61     936  
 124   12:00   66.0    24    9.0   168     16.0   15.61     846  
 124   13:00   65.0    25    7.0   182     16.0   15.61     669  
 124   14:00   65.0    26    7.0   140     13.0   15.61     572  
 124   15:00   67.0    23    5.0   190     14.0   15.61     598  
 124   16:00   66.0    25    7.0   125     13.0   15.61     465  
 124   17:00   63.0    30    2.0   247     10.0   15.61     195  
 124   18:00   60.0    38    5.0   215     12.0   15.61      80  
 124   19:00   57.0    46    4.0   110     11.0   15.61      33  
 124   20:00   55.0    51    2.0    54      6.0   15.61       1  
 124   21:00   53.0    52    4.0   233      7.0   15.61       0  
 124   22:00   51.0    54    3.0   246      6.0   15.61       0  
 124   23:00   50.0    54    2.0   309      6.0   15.61       0  
 125    0:00   47.0    59    3.0   280      5.0   15.61       0  
 125    1:00   48.0    60    3.0   278      6.0   15.61       0  
 125    2:00   44.0    67    3.0   305      4.0   15.61       0  
 125    3:00   44.0    69    2.0   309      5.0   15.61       0  
 125    4:00   45.0    68    2.0   299      4.0   15.61       0  
 125    5:00   45.0    68    2.0   280      4.0   15.61       0  
 125    6:00   47.0    66    3.0   294      4.0   15.61      16  
 125    7:00   52.0    58    0.0   145      4.0   15.61      97  
 125    8:00   54.0    55    2.0   212      5.0   15.61     178  

Return to Galena, Nevada graphs page.


Western Regional Climate Center,wrcc@dri.edu